Rechercher aéroport 
image banner adimage banner ad
image banner ad

DNMM - Lagos/Murtala Muhammed

Situé à Lagos, Nigeria

ICAO - DNMM, IATA - LOS

Données fournies par Airmate  

Information générale

Coordonnées: N6°34'43" E3°19'21"
Élévation : 138 feet MSL.
 
Voir autres Aéroports à Lagos

Données opérationnelles

Accessible au public
Heure actuelle UTC:
Heure actuelle locale:
Météo
METAR: DNMM 230700Z 26003KT 8000 SCT009 25/24 Q1015 NOSIG
TAF: TAF DNMM 230500Z 2306/2412 VRB02KT 8000 SCT008 TEMPO 2306/2306 5000 BR BECMG 2308/2310 24010KT BKN012 TEMPO 2312/2317 SCT012 FEW020CB PROB30 2314/2316 TS BECMG 2318/2320 VRB02KT SCT008 TEMPO 2405/2408 5000 BR BECMG 2408/2410 25010KT BKN012
Voir NOTAMs / SUP AIP / TFR affectant cet aéroport [VIEW]
Fréquences de communication: [VIEW]

Pistes:

Identifiant RWYQFULongueur (ft)Largeur (ft)SurfaceLDA (ft)
36L359°12795197
18R179°12794197ASP
36R359°9006148
18L179°9006148

Coordonnées de l'aéroport

Adresse: Lagos Nigeria

Vue satellite de DNMM